Terminal Aerodrome Forecast
Issued by NWS Topeka, KS

Home | Current Version | Previous Version | Graphics & Text | Print | Product List | Glossary On
Versions: 1 2 3 4 5 6 7 8 9 10 11 12 13 14
003
FTUS43 KTOP 212320
TAFTOP
TAF
KTOP 212320Z 2200/2224 03012KT P6SM VCSH OVC070
     FM220500 02009KT 6SM -SHRA SCT025 OVC040
     FM221000 02010KT P6SM OVC040
     FM221500 03011G20KT P6SM BKN060=

USA.gov is the U.S. government's official web portal to all federal, state and local government web resources and services.